Balkasino, Kazakhstan
Current Conditions -  °F | °C
As of 6:00 PM on Friday 19 Dec 2014 (Local Time) from UACK Reporting Station
Clear Clear  
Wind Chill: -7°   Ceiling: Unl
Heat Index:   Visibility: 6mi
Dew Point:   Wind: 7mph
Humidity: 85%   Direction: 150°SSE
Pressure: 30.36"   Gusts: NA
Location:  52.53°N, 68.75°E
Report Text: UACK 191200Z 15003MPS CAVOK M15/M17 Q1028 R02/490337 NOSIG RMKQFE746/0995
Loading
Personal Weather Stations






























Interactive Weather Map New forecast layout! Learn more

10-Day Weather Forecast

Advertisements
Track Severe Weather on mobile